Time;durP1;ratioP1;P1;durP2;ratioP2;P2;SDS_P1;SDS_P2;PMS_P1;PMS_P2;Temp;Humidity;BMP_temperature;BMP_pressure;BME280_temperature;BME280_humidity;BME280_pressure;Samples;Min_cycle;Max_cycle;Signal;HPM_P1;HPM_P2
2023/12/07 00:03:57;;;;;;;92.20;48.00;;;;;;;-2.58;84.39;98792.95;226170;1275;22617;-74
2023/12/07 00:09:04;;;;;;;90.00;48.60;;;;;;;-2.56;84.71;98790.73;226327;1276;22550;-74
2023/12/07 00:14:07;;;;;;;95.90;49.90;;;;;;;-2.52;84.78;98786.30;226309;1275;22552;-74
2023/12/07 00:19:09;;;;;;;95.20;48.20;;;;;;;-2.45;84.41;98792.95;226322;1269;22676;-75
2023/12/07 00:24:11;;;;;;;95.00;49.60;;;;;;;-2.42;84.67;98789.92;226268;1271;26249;-75
2023/12/07 00:29:13;;;;;;;98.60;50.70;;;;;;;-2.38;84.57;98791.77;226318;1269;22551;-75
2023/12/07 00:34:17;;;;;;;95.40;49.10;;;;;;;-2.38;84.49;98795.36;226283;1272;25430;-75
2023/12/07 00:39:20;;;;;;;94.90;50.60;;;;;;;-2.36;84.50;98804.32;226225;1274;22630;-75
2023/12/07 00:44:22;;;;;;;93.70;50.10;;;;;;;-2.30;84.69;98802.52;226188;1275;22581;-76
2023/12/07 00:49:24;;;;;;;100.40;51.70;;;;;;;-2.25;84.69;98799.40;226285;1276;22669;-76
2023/12/07 00:54:26;;;;;;;100.20;52.30;;;;;;;-2.18;84.69;98800.10;226252;1276;25517;-76
2023/12/07 00:59:33;;;;;;;98.20;52.70;;;;;;;-2.12;84.80;98803.87;226251;1275;22549;-76
2023/12/07 01:04:36;;;;;;;99.10;51.60;;;;;;;-2.10;84.64;98808.92;226268;1272;25416;-77
2023/12/07 01:09:38;;;;;;;98.20;50.60;;;;;;;-2.08;84.50;98809.77;226249;1275;24574;-77
2023/12/07 01:14:41;;;;;;;102.50;52.10;;;;;;;-2.06;84.61;98815.30;226259;1272;22570;-74
2023/12/07 01:19:43;;;;;;;97.30;51.70;;;;;;;-2.03;84.38;98819.77;226259;1275;25585;-75
2023/12/07 01:24:45;;;;;;;103.50;53.70;;;;;;;-2.01;84.88;98825.84;226313;1274;22548;-75
2023/12/07 01:29:47;;;;;;;104.50;54.00;;;;;;;-2.00;84.76;98825.75;226294;1276;24957;-75
2023/12/07 01:34:49;;;;;;;98.60;50.80;;;;;;;-2.00;84.52;98828.05;226337;1272;22598;-75
2023/12/07 01:39:52;;;;;;;99.80;50.50;;;;;;;-2.06;84.17;98826.22;226311;1272;22537;-76
2023/12/07 01:44:54;;;;;;;98.30;50.40;;;;;;;-2.14;84.57;98824.48;226316;1276;22575;-75
2023/12/07 01:49:56;;;;;;;100.20;50.60;;;;;;;-2.28;84.22;98832.05;226334;1274;25933;-75
2023/12/07 01:54:59;;;;;;;110.70;56.90;;;;;;;-2.37;84.17;98831.84;226265;1253;23512;-75
2023/12/07 02:00:03;;;;;;;98.70;52.80;;;;;;;-2.38;84.59;98833.80;226275;1272;22592;-74
2023/12/07 02:05:06;;;;;;;93.90;48.80;;;;;;;-2.36;84.75;98833.83;226324;1272;24240;-75
2023/12/07 02:10:08;;;;;;;95.60;52.10;;;;;;;-2.36;84.59;98832.49;226236;1275;22551;-75
2023/12/07 02:15:11;;;;;;;99.50;51.30;;;;;;;-2.39;84.61;98826.66;226159;1275;24287;-76
2023/12/07 02:20:36;;;;;;;95.90;51.30;;;;;;;-2.41;84.24;98830.61;226370;1272;22555;-75
2023/12/07 02:25:52;;;;;;;98.90;51.20;;;;;;;-2.46;84.68;98835.21;226354;1275;22550;-75
2023/12/07 02:30:55;;;;;;;107.90;55.60;;;;;;;-2.51;84.50;98835.52;226327;1276;22729;-76
2023/12/07 02:35:57;;;;;;;102.30;52.80;;;;;;;-2.47;84.70;98836.50;226225;1276;22540;-76
2023/12/07 02:41:01;;;;;;;101.20;51.40;;;;;;;-2.42;85.24;98837.21;226371;1272;22557;-76
2023/12/07 02:46:04;;;;;;;104.40;54.30;;;;;;;-2.42;85.11;98841.33;226324;1270;22601;-76
2023/12/07 02:51:06;;;;;;;102.60;53.00;;;;;;;-2.41;84.87;98851.09;226231;1275;22827;-76
2023/12/07 02:56:08;;;;;;;109.80;55.80;;;;;;;-2.38;85.21;98851.42;226305;1272;22543;-75
2023/12/07 03:01:10;;;;;;;119.10;57.50;;;;;;;-2.33;85.24;98856.74;226316;1275;22513;-75
2023/12/07 03:06:12;;;;;;;115.00;55.50;;;;;;;-2.28;85.14;98849.30;226371;1275;22603;-76
2023/12/07 03:11:14;;;;;;;114.10;56.40;;;;;;;-2.21;85.06;98852.78;226388;1275;22548;-76
2023/12/07 03:16:16;;;;;;;111.50;57.70;;;;;;;-2.16;85.17;98858.11;226347;1272;22548;-76
2023/12/07 03:21:18;;;;;;;116.50;56.70;;;;;;;-2.11;85.28;98857.46;226272;1276;22544;-76
2023/12/07 03:26:20;;;;;;;99.70;49.00;;;;;;;-2.05;85.07;98857.02;226329;1270;22539;-77
2023/12/07 03:31:22;;;;;;;90.00;45.00;;;;;;;-2.00;84.68;98864.79;226344;1275;22536;-77
2023/12/07 03:36:24;;;;;;;84.70;43.20;;;;;;;-1.96;85.32;98869.16;226286;1275;22540;-76
2023/12/07 03:41:26;;;;;;;86.40;44.30;;;;;;;-1.93;85.13;98872.24;226316;1272;22589;-76
2023/12/07 03:46:28;;;;;;;82.90;42.40;;;;;;;-1.92;85.11;98873.85;226272;1275;22536;-76
2023/12/07 03:51:30;;;;;;;91.70;45.30;;;;;;;-1.88;84.97;98879.11;226113;1275;22497;-76
2023/12/07 03:56:33;;;;;;;91.70;45.90;;;;;;;-1.88;84.61;98881.88;226292;1275;22554;-76
2023/12/07 04:01:35;;;;;;;98.10;47.80;;;;;;;-1.89;84.81;98886.96;226234;1275;22901;-77
2023/12/07 04:06:37;;;;;;;86.20;41.60;;;;;;;-1.91;84.68;98891.39;226267;1275;22547;-76
2023/12/07 04:11:40;;;;;;;97.20;47.50;;;;;;;-1.97;84.65;98889.41;226342;1276;22590;-77
2023/12/07 04:16:43;;;;;;;93.90;46.00;;;;;;;-2.03;84.42;98887.07;226368;1276;22568;-76
2023/12/07 04:21:45;;;;;;;101.20;46.50;;;;;;;-2.05;84.73;98890.98;226294;1276;22621;-76
2023/12/07 04:26:49;;;;;;;101.30;46.90;;;;;;;-2.07;84.40;98900.09;226206;1276;22548;-75
2023/12/07 04:31:51;;;;;;;98.40;46.10;;;;;;;-2.08;84.46;98905.52;226312;1266;22588;-76
2023/12/07 04:36:53;;;;;;;100.00;47.30;;;;;;;-2.09;84.76;98908.05;226076;1276;22543;-76
2023/12/07 04:41:55;;;;;;;100.30;46.10;;;;;;;-2.10;84.38;98912.79;226282;1273;24237;-76
2023/12/07 04:46:57;;;;;;;100.50;46.70;;;;;;;-2.13;84.40;98918.48;226260;1276;22547;-76
2023/12/07 04:51:59;;;;;;;100.50;47.60;;;;;;;-2.10;84.80;98927.77;226242;1272;24304;-75
2023/12/07 04:57:01;;;;;;;105.20;46.80;;;;;;;-2.11;85.02;98934.23;226325;1272;24215;-75
2023/12/07 05:02:03;;;;;;;95.20;44.60;;;;;;;-2.15;84.71;98937.90;226340;1273;22623;-75
2023/12/07 05:07:05;;;;;;;97.20;46.50;;;;;;;-2.14;84.59;98943.08;226300;1272;22569;-75
2023/12/07 05:12:08;;;;;;;93.70;45.20;;;;;;;-2.14;84.48;98946.84;226214;1269;24115;-75
2023/12/07 05:17:10;;;;;;;93.00;43.60;;;;;;;-2.15;84.64;98948.13;226070;1276;22571;-75
2023/12/07 05:22:14;;;;;;;87.60;41.30;;;;;;;-2.16;84.84;98953.55;226085;1276;26687;-75
2023/12/07 05:27:16;;;;;;;89.60;44.00;;;;;;;-2.15;84.75;98948.80;226316;1273;22542;-75
2023/12/07 05:32:18;;;;;;;92.60;43.10;;;;;;;-2.11;84.66;98956.87;226196;1275;25424;-75
2023/12/07 05:37:20;;;;;;;86.20;41.00;;;;;;;-2.11;84.80;98959.09;226261;1275;22571;-77
2023/12/07 05:42:22;;;;;;;81.90;38.50;;;;;;;-2.10;84.72;98964.90;226336;1272;22546;-74
2023/12/07 05:47:26;;;;;;;85.60;40.40;;;;;;;-2.12;84.92;98971.23;226294;1273;22692;-74
2023/12/07 05:52:28;;;;;;;89.30;40.30;;;;;;;-2.13;84.97;98967.85;226364;1275;22552;-74
2023/12/07 05:57:31;;;;;;;89.20;41.30;;;;;;;-2.10;85.01;98976.79;226278;1275;22551;-75
2023/12/07 06:02:33;;;;;;;87.50;39.40;;;;;;;-2.08;84.97;98984.40;226224;1276;22536;-75
2023/12/07 06:07:35;;;;;;;93.80;42.50;;;;;;;-2.05;84.96;98986.63;226156;1275;22537;-75
2023/12/07 06:12:37;;;;;;;88.60;41.00;;;;;;;-2.02;85.23;98988.30;226296;1275;22548;-75
2023/12/07 06:17:39;;;;;;;84.00;40.10;;;;;;;-2.01;85.09;98996.49;226207;1273;24307;-75
2023/12/07 06:22:41;;;;;;;85.90;41.70;;;;;;;-2.03;84.84;99006.48;226242;1276;22701;-77
2023/12/07 06:27:44;;;;;;;88.50;41.50;;;;;;;-2.04;85.08;99008.61;226158;1255;22548;-73
2023/12/07 06:32:46;;;;;;;94.00;43.60;;;;;;;-2.04;84.93;99006.71;226112;1276;22628;-76
2023/12/07 06:37:48;;;;;;;81.00;37.70;;;;;;;-2.01;84.89;99012.41;226288;1275;22540;-77
2023/12/07 06:42:50;;;;;;;94.20;43.40;;;;;;;-2.00;85.18;99004.38;226206;1266;22714;-74
2023/12/07 06:47:52;;;;;;;96.80;43.90;;;;;;;-1.96;85.12;99011.39;226237;1268;22537;-76
2023/12/07 06:52:54;;;;;;;93.70;43.40;;;;;;;-1.92;85.03;99021.79;226117;1253;25877;-74
2023/12/07 06:57:57;;;;;;;89.10;42.50;;;;;;;-1.89;85.10;99025.91;225995;1257;22561;-71
2023/12/07 07:02:59;;;;;;;91.80;43.80;;;;;;;-1.90;84.91;99027.48;225778;1254;22583;-76
2023/12/07 07:08:01;;;;;;;83.20;41.80;;;;;;;-1.91;84.91;99032.95;225877;1257;22547;-74
2023/12/07 07:13:04;;;;;;;82.70;39.70;;;;;;;-1.90;84.83;99044.05;225879;1254;22535;-74
2023/12/07 07:18:06;;;;;;;84.90;41.20;;;;;;;-1.86;84.61;99044.50;225591;1260;22575;-73
2023/12/07 07:23:08;;;;;;;84.20;42.70;;;;;;;-1.81;84.68;99046.71;225704;1254;24282;-74
2023/12/07 07:28:10;;;;;;;90.80;41.60;;;;;;;-1.72;84.88;99048.23;225780;1253;22569;-73
2023/12/07 07:33:12;;;;;;;89.50;44.00;;;;;;;-1.62;84.99;99052.70;225745;1257;23024;-73
2023/12/07 07:38:14;;;;;;;85.50;41.00;;;;;;;-1.54;84.79;99049.09;225709;1270;23031;-77
2023/12/07 07:43:17;;;;;;;87.30;44.30;;;;;;;-1.45;84.83;99060.50;225737;1260;22563;-74
2023/12/07 07:48:19;;;;;;;87.70;43.60;;;;;;;-1.38;85.03;99062.98;225493;1260;22552;-74
2023/12/07 07:53:21;;;;;;;81.70;39.30;;;;;;;-1.30;84.50;99062.08;225554;1255;22556;-75
2023/12/07 07:58:23;;;;;;;87.20;41.70;;;;;;;-1.27;84.44;99059.30;225746;1255;23249;-74
2023/12/07 08:03:25;;;;;;;77.20;39.50;;;;;;;-1.29;84.33;99065.10;225930;1255;22556;-74
2023/12/07 08:08:27;;;;;;;78.40;40.50;;;;;;;-1.26;84.43;99070.58;225607;1263;23125;-75
2023/12/07 08:13:29;;;;;;;83.40;40.10;;;;;;;-1.17;84.80;99068.90;225691;1269;22706;-76
2023/12/07 08:18:32;;;;;;;81.40;41.40;;;;;;;-1.14;84.07;99072.48;225516;1256;23106;-75
2023/12/07 08:23:35;;;;;;;79.10;41.00;;;;;;;-1.07;84.34;99076.54;225688;1273;22545;-76
2023/12/07 08:28:41;;;;;;;79.20;40.60;;;;;;;-1.00;84.45;99080.88;225837;1253;22662;-77
2023/12/07 08:33:43;;;;;;;84.60;41.60;;;;;;;-0.99;83.81;99088.09;225893;1254;23184;-75
2023/12/07 08:38:46;;;;;;;86.80;41.30;;;;;;;-0.98;83.78;99095.61;225853;1254;22533;-75
2023/12/07 08:43:48;;;;;;;82.30;41.40;;;;;;;-0.96;83.79;99106.73;225794;1254;22930;-74
2023/12/07 08:48:52;;;;;;;80.60;40.40;;;;;;;-0.93;83.82;99105.48;225682;1254;22832;-76
2023/12/07 08:53:55;;;;;;;79.60;41.00;;;;;;;-0.87;83.58;99106.05;227112;1257;22556;-79
2023/12/07 08:58:58;;;;;;;81.70;41.00;;;;;;;-0.83;83.25;99107.48;225771;1254;22719;-78
2023/12/07 09:04:00;;;;;;;88.70;43.60;;;;;;;-0.74;83.66;99109.25;225812;1274;22548;-75
2023/12/07 09:09:04;;;;;;;79.10;41.40;;;;;;;-0.64;83.50;99113.39;225875;1267;25110;-75
2023/12/07 09:14:06;;;;;;;82.00;42.00;;;;;;;-0.52;83.44;99112.85;225610;1270;22695;-75
2023/12/07 09:19:08;;;;;;;85.50;43.50;;;;;;;-0.37;83.69;99109.38;225758;1254;22551;-75
2023/12/07 09:24:10;;;;;;;85.90;43.70;;;;;;;-0.24;83.57;99109.59;225886;1253;22547;-73
2023/12/07 09:29:12;;;;;;;81.80;42.60;;;;;;;-0.13;83.25;99112.28;225904;1254;25315;-73
2023/12/07 09:34:17;;;;;;;86.50;43.80;;;;;;;-0.04;82.97;99116.45;225972;1267;26129;-74
2023/12/07 09:39:19;;;;;;;84.60;42.00;;;;;;;0.09;83.14;99117.58;226031;1267;23092;-78
2023/12/07 09:44:21;;;;;;;87.40;43.90;;;;;;;0.22;83.25;99116.06;226066;1258;22556;-74
2023/12/07 09:49:25;;;;;;;89.30;45.00;;;;;;;0.36;83.17;99114.84;226016;1262;22561;-74
2023/12/07 09:54:28;;;;;;;95.10;45.80;;;;;;;0.44;82.84;99113.23;226022;1270;23024;-74
2023/12/07 09:59:30;;;;;;;90.90;45.80;;;;;;;0.54;82.57;99113.12;225839;1257;22548;-73
2023/12/07 10:04:32;;;;;;;86.90;45.00;;;;;;;0.66;82.68;99109.23;225862;1269;25521;-77
2023/12/07 10:09:40;;;;;;;88.10;44.50;;;;;;;0.76;82.36;99108.30;225752;1272;22563;-77
2023/12/07 10:14:42;;;;;;;87.10;45.60;;;;;;;0.82;82.15;99102.46;225820;1272;22585;-77
2023/12/07 10:20:12;;;;;;;88.80;44.10;;;;;;;1.02;82.34;99101.58;225760;1269;22911;-77
2023/12/07 10:25:14;;;;;;;81.90;44.00;;;;;;;1.18;82.23;99096.52;225699;1260;22571;-79
2023/12/07 10:30:17;;;;;;;83.70;43.40;;;;;;;1.35;82.06;99097.05;225612;1273;23628;-77
2023/12/07 10:35:20;;;;;;;80.80;43.20;;;;;;;1.43;81.48;99097.27;225975;1272;25433;-77
2023/12/07 10:40:22;;;;;;;80.90;44.00;;;;;;;1.48;81.54;99096.61;225935;1262;22544;-77
2023/12/07 10:45:29;;;;;;;84.10;43.80;;;;;;;1.53;81.41;99096.70;225726;1270;22608;-77
2023/12/07 10:50:41;;;;;;;75.40;40.10;;;;;;;1.45;80.55;99100.25;225787;1259;22653;-78
2023/12/07 10:55:55;;;;;;;81.00;42.80;;;;;;;1.41;80.90;99093.80;225797;1254;22599;-78
2023/12/07 11:00:59;;;;;;;75.10;40.10;;;;;;;1.47;80.72;99102.44;225750;1269;22920;-78
2023/12/07 11:06:04;;;;;;;79.60;40.80;;;;;;;1.50;80.81;99100.57;226189;1268;22517;-80
2023/12/07 11:11:20;;;;;;;76.30;40.00;;;;;;;1.55;80.60;99097.88;225873;1267;25368;-77
2023/12/07 11:16:32;;;;;;;75.20;40.00;;;;;;;1.55;80.62;99098.27;225864;1268;22543;-80
2023/12/07 11:21:34;;;;;;;72.60;40.40;;;;;;;1.58;80.62;99100.08;224807;1253;1364408;-78
2023/12/07 11:26:37;;;;;;;72.70;38.50;;;;;;;1.62;80.58;99097.48;225642;1260;22710;-78
2023/12/07 11:31:39;;;;;;;67.90;37.60;;;;;;;1.69;80.70;99096.21;225865;1272;22571;-79
2023/12/07 11:36:41;;;;;;;62.60;35.70;;;;;;;1.77;80.62;99103.39;225923;1253;25952;-79
2023/12/07 11:41:44;;;;;;;65.80;36.40;;;;;;;1.77;80.13;99100.95;225955;1268;22584;-77
2023/12/07 11:46:46;;;;;;;59.50;34.20;;;;;;;1.79;80.26;99095.97;226604;1262;22560;-79
2023/12/07 11:51:48;;;;;;;62.80;35.70;;;;;;;1.82;80.11;99096.23;226160;1253;22557;-78
2023/12/07 11:56:55;;;;;;;63.80;35.70;;;;;;;1.83;80.14;99087.63;225920;1264;22530;-78
2023/12/07 12:01:59;;;;;;;60.90;33.40;;;;;;;1.85;80.03;99081.88;226089;1271;22530;-78
2023/12/07 12:07:01;;;;;;;61.20;32.40;;;;;;;1.87;80.11;99082.24;225894;1260;22571;-77
2023/12/07 12:12:04;;;;;;;61.30;35.30;;;;;;;1.86;79.82;99085.83;226062;1263;22551;-79
2023/12/07 12:17:06;;;;;;;64.40;35.00;;;;;;;1.81;79.78;99089.89;226017;1253;23025;-76
2023/12/07 12:22:08;;;;;;;67.30;35.90;;;;;;;1.75;79.57;99095.37;226054;1253;25432;-76
2023/12/07 12:27:11;;;;;;;64.90;35.20;;;;;;;1.64;79.63;99099.27;225893;1263;22544;-75
2023/12/07 12:32:13;;;;;;;69.50;38.90;;;;;;;1.56;79.77;99093.48;225853;1253;22587;-76
2023/12/07 12:37:15;;;;;;;74.60;39.50;;;;;;;1.53;79.88;99091.65;225957;1251;22582;-78
2023/12/07 12:42:17;;;;;;;68.80;38.30;;;;;;;1.51;79.99;99089.16;225853;1253;22636;-79
2023/12/07 12:47:19;;;;;;;62.40;34.20;;;;;;;1.43;79.72;99093.27;225912;1264;22553;-77
2023/12/07 12:52:25;;;;;;;60.00;33.50;;;;;;;1.41;80.04;99092.92;225828;1269;22608;-77
2023/12/07 12:57:28;;;;;;;59.20;33.60;;;;;;;1.43;80.26;99096.26;226049;1260;22641;-78
2023/12/07 13:02:30;;;;;;;61.90;34.70;;;;;;;1.42;80.18;99100.85;225781;1259;23693;-78
2023/12/07 13:07:32;;;;;;;62.90;34.70;;;;;;;1.42;80.18;99099.64;225767;1275;22574;-77
2023/12/07 13:12:35;;;;;;;68.60;37.40;;;;;;;1.40;80.23;99101.16;225922;1270;22612;-80
2023/12/07 13:17:38;;;;;;;70.40;36.60;;;;;;;1.40;80.46;99101.33;225858;1267;25417;-78
2023/12/07 13:22:43;;;;;;;66.90;35.50;;;;;;;1.40;80.53;99105.89;225922;1256;22700;-78
2023/12/07 13:27:45;;;;;;;64.20;35.30;;;;;;;1.38;80.60;99116.26;225968;1255;22543;-79
2023/12/07 13:32:47;;;;;;;62.30;35.50;;;;;;;1.33;80.38;99121.88;226058;1253;22540;-78
2023/12/07 13:37:50;;;;;;;63.90;35.00;;;;;;;1.25;80.45;99122.70;226052;1272;22545;-78
2023/12/07 13:42:52;;;;;;;59.10;33.30;;;;;;;1.19;80.57;99124.50;226008;1256;22568;-79
2023/12/07 13:47:55;;;;;;;59.00;34.10;;;;;;;1.16;80.60;99131.23;225957;1260;22557;-79
2023/12/07 13:53:00;;;;;;;57.30;32.50;;;;;;;1.11;80.78;99137.64;225928;1253;22544;-77
2023/12/07 13:58:02;;;;;;;61.30;33.60;;;;;;;1.02;80.70;99140.39;226124;1263;22556;-79
2023/12/07 14:03:04;;;;;;;58.10;34.00;;;;;;;0.94;80.73;99142.07;226107;1262;24509;-79
2023/12/07 14:08:06;;;;;;;67.60;36.40;;;;;;;0.85;80.78;99142.95;225886;1269;22602;-78
2023/12/07 14:13:09;;;;;;;60.00;33.60;;;;;;;0.77;80.86;99147.09;225954;1253;22587;-78
2023/12/07 14:18:11;;;;;;;67.30;36.40;;;;;;;0.63;80.77;99148.79;226125;1256;22567;-78
2023/12/07 14:23:15;;;;;;;66.90;37.20;;;;;;;0.52;80.69;99157.14;225980;1269;22561;-77
2023/12/07 14:28:17;;;;;;;64.80;34.60;;;;;;;0.42;81.30;99161.52;225824;1269;24813;-75
2023/12/07 14:33:19;;;;;;;61.20;33.70;;;;;;;0.34;81.10;99166.11;225760;1275;22566;-74
2023/12/07 14:38:23;;;;;;;64.30;35.90;;;;;;;0.25;81.00;99161.06;225972;1270;23073;-80
2023/12/07 14:43:25;;;;;;;61.50;34.60;;;;;;;0.18;81.40;99155.65;225883;1253;23312;-75
2023/12/07 14:48:27;;;;;;;58.60;33.20;;;;;;;0.13;81.36;99165.61;226230;1256;25533;-76
2023/12/07 14:53:30;;;;;;;57.90;32.80;;;;;;;0.09;81.34;99169.91;225996;1264;25288;-82
2023/12/07 14:58:35;;;;;;;65.20;36.10;;;;;;;0.04;81.49;99173.55;225917;1253;22558;-77
2023/12/07 15:03:37;;;;;;;67.90;37.90;;;;;;;0.02;81.51;99174.02;225583;1268;25449;-78
2023/12/07 15:08:39;;;;;;;61.80;35.10;;;;;;;0.00;81.76;99171.01;225779;1272;22571;-78
2023/12/07 15:13:41;;;;;;;63.80;35.90;;;;;;;0.00;81.95;99173.27;225679;1269;22607;-78
2023/12/07 15:18:46;;;;;;;67.40;37.10;;;;;;;0.00;82.01;99178.66;226080;1272;24786;-77
2023/12/07 15:23:49;;;;;;;65.50;34.90;;;;;;;-0.01;81.86;99184.77;226058;1273;22544;-78
2023/12/07 15:28:51;;;;;;;69.00;37.60;;;;;;;-0.01;81.87;99186.34;226420;1272;22588;-79
2023/12/07 15:33:53;;;;;;;66.10;39.00;;;;;;;0.01;82.25;99185.20;226435;1272;24264;-79
2023/12/07 15:38:56;;;;;;;75.60;41.10;;;;;;;0.00;82.07;99181.06;226267;1269;22554;-79
2023/12/07 15:43:58;;;;;;;71.40;40.20;;;;;;;-0.00;82.15;99185.60;226344;1273;22684;-79
2023/12/07 15:49:00;;;;;;;72.60;39.80;;;;;;;-0.08;81.75;99187.38;226444;1272;22543;-79
2023/12/07 15:54:02;;;;;;;75.10;41.30;;;;;;;-0.19;81.74;99192.98;226497;1269;25393;-79
2023/12/07 15:59:04;;;;;;;85.80;45.00;;;;;;;-0.25;82.03;99200.36;226340;1273;22540;-78
2023/12/07 16:04:06;;;;;;;87.00;44.60;;;;;;;-0.24;82.26;99201.70;226334;1273;22902;-78
2023/12/07 16:09:10;;;;;;;91.50;44.80;;;;;;;-0.24;82.80;99204.10;226324;1272;24300;-78
2023/12/07 16:14:13;;;;;;;88.70;45.90;;;;;;;-0.25;82.78;99209.40;226466;1272;22548;-79
2023/12/07 16:19:27;;;;;;;91.90;45.50;;;;;;;-0.28;82.89;99208.36;226492;1273;24956;-78
2023/12/07 16:24:31;;;;;;;87.80;45.90;;;;;;;-0.27;82.97;99203.63;226238;1275;25294;-80
2023/12/07 16:29:33;;;;;;;97.50;48.40;;;;;;;-0.27;83.01;99207.10;226550;1273;22553;-78
2023/12/07 16:34:35;;;;;;;86.70;46.40;;;;;;;-0.25;83.28;99210.09;226465;1275;22567;-79
2023/12/07 16:39:42;;;;;;;95.00;47.30;;;;;;;-0.23;83.44;99213.97;226447;1275;22558;-79
2023/12/07 16:44:45;;;;;;;86.90;45.90;;;;;;;-0.26;83.57;99213.45;226261;1275;22571;-78
2023/12/07 16:49:46;;;;;;;92.20;47.50;;;;;;;-0.24;83.62;99213.47;226479;1275;22563;-79
2023/12/07 16:54:54;;;;;;;98.20;48.30;;;;;;;-0.27;83.48;99211.45;226374;1273;22623;-80
2023/12/07 16:59:57;;;;;;;87.40;44.90;;;;;;;-0.32;83.31;99211.61;226390;1273;22556;-79
2023/12/07 17:05:00;;;;;;;91.70;47.20;;;;;;;-0.37;83.62;99207.45;226288;1273;22770;-79
2023/12/07 17:10:04;;;;;;;91.20;48.40;;;;;;;-0.36;83.63;99218.10;226462;1272;24250;-80
2023/12/07 17:15:07;;;;;;;95.40;50.10;;;;;;;-0.39;83.67;99223.02;226418;1275;22524;-80
2023/12/07 17:20:11;;;;;;;98.40;51.90;;;;;;;-0.40;83.90;99220.63;226410;1262;22536;-80
2023/12/07 17:25:14;;;;;;;94.00;49.80;;;;;;;-0.40;83.92;99217.73;226430;1275;22536;-80
2023/12/07 17:30:18;;;;;;;105.60;54.40;;;;;;;-0.42;83.67;99222.20;226504;1272;22565;-80
2023/12/07 17:35:21;;;;;;;107.70;54.50;;;;;;;-0.41;83.81;99223.32;226378;1275;22571;-78
2023/12/07 17:40:25;;;;;;;113.20;57.90;;;;;;;-0.37;83.95;99222.15;226432;1272;22549;-73
2023/12/07 17:45:27;;;;;;;110.00;56.30;;;;;;;-0.33;83.95;99229.00;226275;1274;25608;-73
2023/12/07 17:50:29;;;;;;;110.60;58.00;;;;;;;-0.32;84.27;99235.19;226236;1275;22550;-72
2023/12/07 17:55:31;;;;;;;112.70;56.30;;;;;;;-0.33;84.06;99234.57;226303;1273;22733;-73
2023/12/07 18:00:33;;;;;;;106.70;55.20;;;;;;;-0.33;84.31;99233.02;226273;1275;25545;-73
2023/12/07 18:05:35;;;;;;;106.90;55.30;;;;;;;-0.36;83.96;99229.69;226431;1274;22584;-72
2023/12/07 18:10:37;;;;;;;107.30;55.80;;;;;;;-0.41;83.92;99225.91;226376;1273;22586;-74
2023/12/07 18:15:40;;;;;;;111.40;57.20;;;;;;;-0.47;83.69;99221.13;226354;1269;25962;-73
2023/12/07 18:20:43;;;;;;;128.50;64.40;;;;;;;-0.49;83.93;99226.19;226213;1275;24453;-73
2023/12/07 18:25:50;;;;;;;124.10;61.30;;;;;;;-0.52;84.38;99228.62;226393;1272;22573;-73
2023/12/07 18:30:54;;;;;;;112.60;57.40;;;;;;;-0.53;84.32;99230.54;226308;1263;22888;-73
2023/12/07 18:35:57;;;;;;;114.60;58.20;;;;;;;-0.53;84.29;99229.56;226356;1275;22594;-74
2023/12/07 18:41:04;;;;;;;115.70;57.20;;;;;;;-0.55;84.22;99230.35;226322;1272;22490;-74
2023/12/07 18:46:09;;;;;;;115.40;60.10;;;;;;;-0.58;84.37;99234.38;226376;1264;22544;-73
2023/12/07 18:51:12;;;;;;;118.40;61.00;;;;;;;-0.57;84.56;99230.37;226161;1275;25433;-74
2023/12/07 18:56:15;;;;;;;132.10;69.60;;;;;;;-0.58;84.58;99226.64;226159;1275;22541;-73
2023/12/07 19:01:18;;;;;;;137.00;71.10;;;;;;;-0.61;84.35;99231.83;226342;1275;23800;-73
2023/12/07 19:06:22;;;;;;;130.10;65.10;;;;;;;-0.63;84.62;99236.48;226425;1269;22553;-73
2023/12/07 19:11:25;;;;;;;124.10;63.50;;;;;;;-0.61;84.83;99233.41;226378;1271;22546;-73
2023/12/07 19:16:28;;;;;;;134.60;70.40;;;;;;;-0.62;84.74;99235.03;226232;1275;22754;-72
2023/12/07 19:21:31;;;;;;;129.70;67.80;;;;;;;-0.64;84.58;99239.86;226454;1272;24241;-75
2023/12/07 19:26:33;;;;;;;139.30;68.30;;;;;;;-0.62;84.73;99238.34;226710;1271;22562;-75
2023/12/07 19:31:38;;;;;;;133.40;65.80;;;;;;;-0.64;84.91;99232.88;226350;1274;24403;-74
2023/12/07 19:36:41;;;;;;;141.60;71.30;;;;;;;-0.65;84.67;99233.20;226609;1269;22558;-74
2023/12/07 19:41:49;;;;;;;143.60;73.60;;;;;;;-0.62;85.38;99239.55;226465;1275;22650;-73
2023/12/07 19:46:51;;;;;;;144.60;73.40;;;;;;;-0.59;85.17;99236.01;226318;1275;24341;-74
2023/12/07 19:51:53;;;;;;;135.80;71.50;;;;;;;-0.54;85.09;99239.16;226310;1275;22548;-74
2023/12/07 19:57:01;;;;;;;142.20;73.00;;;;;;;-0.55;85.19;99237.26;226163;1275;22544;-75
2023/12/07 20:02:06;;;;;;;147.90;75.40;;;;;;;-0.54;85.17;99234.48;226283;1275;22546;-74
2023/12/07 20:07:11;;;;;;;140.60;70.70;;;;;;;-0.49;85.20;99234.67;226304;1269;23355;-74
2023/12/07 20:12:14;;;;;;;134.00;68.30;;;;;;;-0.47;85.23;99233.77;226173;1275;22527;-74
2023/12/07 20:17:17;;;;;;;135.20;66.90;;;;;;;-0.46;85.06;99238.77;226183;1275;22587;-74
2023/12/07 20:22:19;;;;;;;134.20;66.20;;;;;;;-0.47;85.15;99241.06;226234;1273;23041;-73
2023/12/07 20:27:21;;;;;;;133.20;67.50;;;;;;;-0.49;85.15;99242.92;226332;1270;22540;-72
2023/12/07 20:32:24;;;;;;;128.80;66.10;;;;;;;-0.49;85.36;99250.17;226320;1275;22539;-74
2023/12/07 20:37:31;;;;;;;142.60;73.50;;;;;;;-0.46;85.22;99253.79;226438;1272;22562;-72
2023/12/07 20:42:35;;;;;;;206.10;115.10;;;;;;;-0.43;85.26;99252.84;226192;1275;22588;-73
2023/12/07 20:47:39;;;;;;;157.90;78.40;;;;;;;-0.40;85.57;99258.18;226358;1272;22547;-73
2023/12/07 20:52:41;;;;;;;161.40;80.50;;;;;;;-0.36;85.15;99259.14;226522;1254;24241;-72
2023/12/07 20:57:43;;;;;;;156.50;80.50;;;;;;;-0.34;85.37;99256.92;226449;1272;22611;-72
2023/12/07 21:02:45;;;;;;;155.90;77.60;;;;;;;-0.31;85.31;99252.64;226345;1274;22547;-72
2023/12/07 21:07:49;;;;;;;154.30;78.70;;;;;;;-0.32;85.05;99247.96;226284;1271;26011;-73
2023/12/07 21:12:56;;;;;;;145.50;73.80;;;;;;;-0.30;85.45;99244.91;226378;1275;22564;-72
2023/12/07 21:17:59;;;;;;;147.40;75.40;;;;;;;-0.30;85.38;99243.16;226509;1275;22534;-73
2023/12/07 21:23:04;;;;;;;143.80;73.70;;;;;;;-0.30;84.96;99239.69;226428;1273;25341;-72
2023/12/07 21:28:06;;;;;;;152.70;74.50;;;;;;;-0.28;85.20;99230.05;226266;1275;22736;-74
2023/12/07 21:33:09;;;;;;;143.60;73.10;;;;;;;-0.23;85.35;99233.83;226306;1272;27551;-73
2023/12/07 21:38:11;;;;;;;127.80;67.10;;;;;;;-0.23;85.48;99230.04;226515;1275;22545;-72
2023/12/07 21:43:13;;;;;;;150.00;71.00;;;;;;;-0.32;84.61;99229.12;226398;1263;22553;-74
2023/12/07 21:48:15;;;;;;;165.70;76.30;;;;;;;-0.36;84.87;99222.26;226434;1274;22602;-72
2023/12/07 21:53:17;;;;;;;146.10;72.20;;;;;;;-0.29;85.40;99218.36;226488;1270;22548;-73
2023/12/07 21:58:19;;;;;;;128.30;64.60;;;;;;;-0.28;85.15;99208.73;226428;1272;22685;-73
2023/12/07 22:03:21;;;;;;;135.50;72.40;;;;;;;-0.32;84.70;99197.27;226403;1272;25410;-72
2023/12/07 22:08:23;;;;;;;140.70;72.60;;;;;;;-0.36;85.14;99183.20;226463;1272;22574;-73
2023/12/07 22:13:25;;;;;;;151.80;77.30;;;;;;;-0.39;85.15;99170.55;226353;1272;22547;-73
2023/12/07 22:18:27;;;;;;;147.80;76.40;;;;;;;-0.37;85.00;99173.34;226412;1273;22536;-72
2023/12/07 22:23:29;;;;;;;146.50;74.20;;;;;;;-0.34;85.22;99170.78;226568;1272;22588;-72
2023/12/07 22:28:31;;;;;;;137.70;71.20;;;;;;;-0.30;85.66;99171.04;226528;1272;22573;-72
2023/12/07 22:33:33;;;;;;;144.60;73.70;;;;;;;-0.29;85.27;99170.36;226465;1272;22552;-73
2023/12/07 22:38:36;;;;;;;150.70;74.80;;;;;;;-0.28;85.46;99156.45;226450;1272;22552;-73
2023/12/07 22:43:38;;;;;;;152.20;77.80;;;;;;;-0.28;85.29;99152.13;226419;1275;25436;-72
2023/12/07 22:48:40;;;;;;;154.60;79.80;;;;;;;-0.31;85.26;99149.27;226530;1272;22534;-73
2023/12/07 22:53:42;;;;;;;170.10;86.20;;;;;;;-0.37;85.09;99148.61;226537;1273;22660;-75
2023/12/07 22:58:46;;;;;;;174.30;88.90;;;;;;;-0.38;85.11;99149.24;226481;1272;22563;-73